createdAt,value
2022-10-22T00:02:04.765Z,5.22
2022-10-22T00:04:34.608Z,5.65
2022-10-22T00:07:03.670Z,5.35
2022-10-22T00:09:31.010Z,4.75
2022-10-22T00:11:57.768Z,4.85
2022-10-22T00:14:24.659Z,4.50
2022-10-22T00:16:51.996Z,5.05
2022-10-22T00:19:18.711Z,4.38
2022-10-22T00:21:45.426Z,5.53
2022-10-22T00:24:14.133Z,4.38
2022-10-22T00:26:40.926Z,4.87
2022-10-22T00:29:07.653Z,4.68
2022-10-22T00:31:35.053Z,5.53
2022-10-22T00:34:01.785Z,4.63
2022-10-22T00:36:28.582Z,4.70
2022-10-22T00:38:55.937Z,5.50
2022-10-22T00:41:24.017Z,4.78
2022-10-22T00:43:56.286Z,4.73
2022-10-22T00:46:23.692Z,4.03
2022-10-22T00:48:51.027Z,4.80
2022-10-22T00:51:18.769Z,4.53
2022-10-22T00:53:49.668Z,5.00
2022-10-22T00:56:17.174Z,4.57
2022-10-22T00:58:48.848Z,5.00
2022-10-22T01:01:18.615Z,5.00
2022-10-22T01:03:45.401Z,4.80
2022-10-22T01:06:18.854Z,5.35
2022-10-22T01:08:54.325Z,5.70
2022-10-22T01:11:26.865Z,5.78
2022-10-22T01:14:04.414Z,5.82
2022-10-22T01:16:37.946Z,5.82
2022-10-22T01:19:25.459Z,5.60
2022-10-22T01:21:56.987Z,6.35
2022-10-22T01:24:35.504Z,6.78
2022-10-22T01:27:30.659Z,6.03
2022-10-22T01:30:02.731Z,6.30
2022-10-22T01:32:33.059Z,6.70
2022-10-22T01:35:04.202Z,5.55
2022-10-22T01:37:33.752Z,6.60
2022-10-22T01:40:02.167Z,5.93
2022-10-22T01:42:28.965Z,7.32
2022-10-22T01:44:55.667Z,5.32
2022-10-22T01:47:38.872Z,7.68
2022-10-22T01:50:23.915Z,6.88
2022-10-22T01:53:11.276Z,6.45
2022-10-22T01:55:46.651Z,7.38
2022-10-22T01:58:34.048Z,6.78
2022-10-22T02:01:06.133Z,6.78
2022-10-22T02:03:41.922Z,7.38
2022-10-22T02:06:14.274Z,7.18
2022-10-22T02:08:42.598Z,8.10
2022-10-22T02:11:11.708Z,7.57
2022-10-22T02:13:42.761Z,7.65
2022-10-22T02:16:14.850Z,7.40
2022-10-22T02:18:46.204Z,7.45
2022-10-22T02:21:14.438Z,7.65
2022-10-22T02:23:41.392Z,8.10
2022-10-22T02:26:16.261Z,6.97
2022-10-22T02:28:49.766Z,7.82
2022-10-22T02:31:22.176Z,7.93
2022-10-22T02:33:54.414Z,7.22
2022-10-22T02:36:23.359Z,8.15
2022-10-22T02:38:52.037Z,8.23
2022-10-22T02:41:19.260Z,8.13
2022-10-22T02:43:53.232Z,8.45
2022-10-22T02:46:20.633Z,7.65
2022-10-22T02:48:47.555Z,6.93
2022-10-22T02:51:16.182Z,7.47
2022-10-22T02:53:43.522Z,7.28
2022-10-22T02:56:10.264Z,7.85
2022-10-22T02:58:37.047Z,7.85
2022-10-22T03:01:04.967Z,7.18
2022-10-22T03:03:31.757Z,7.68
2022-10-22T03:05:58.451Z,7.50
2022-10-22T03:08:27.193Z,7.80
2022-10-22T03:10:53.916Z,7.13
2022-10-22T03:13:20.627Z,7.88
2022-10-22T03:15:49.174Z,7.15
2022-10-22T03:18:16.333Z,6.15
2022-10-22T03:20:43.188Z,7.57
2022-10-22T03:23:11.252Z,7.85
2022-10-22T03:25:42.812Z,8.48
2022-10-22T03:28:11.687Z,7.60
2022-10-22T03:30:38.990Z,7.20
2022-10-22T03:33:05.725Z,7.78
2022-10-22T03:35:37.414Z,6.70
2022-10-22T03:38:04.757Z,7.35
2022-10-22T03:40:31.570Z,7.15
2022-10-22T03:43:00.167Z,7.28
2022-10-22T03:45:27.563Z,6.70
2022-10-22T03:47:54.300Z,8.00
2022-10-22T03:50:21.014Z,7.10
2022-10-22T03:52:48.403Z,7.07
2022-10-22T03:55:15.122Z,7.22
2022-10-22T03:57:42.023Z,7.50
2022-10-22T04:00:11.572Z,6.80
2022-10-22T04:02:38.448Z,6.47
2022-10-22T04:05:06.071Z,7.25
2022-10-22T04:07:33.482Z,6.32
2022-10-22T04:10:00.257Z,7.00
2022-10-22T04:12:26.984Z,7.18
2022-10-22T04:14:54.362Z,7.25
2022-10-22T04:17:22.457Z,6.63
2022-10-22T04:19:49.200Z,6.40
2022-10-22T04:22:16.519Z,5.53
2022-10-22T04:24:43.302Z,5.95
2022-10-22T04:27:10.103Z,7.07
2022-10-22T04:29:37.515Z,5.85
2022-10-22T04:32:04.538Z,7.70
2022-10-22T04:34:32.613Z,6.10
2022-10-22T04:36:59.927Z,6.55
2022-10-22T04:39:26.641Z,7.25
2022-10-22T04:41:53.404Z,6.00
2022-10-22T04:44:20.736Z,5.88
2022-10-22T04:46:47.549Z,6.28
2022-10-22T04:49:14.289Z,4.95
2022-10-22T04:51:42.928Z,5.18
2022-10-22T04:54:09.631Z,6.57
2022-10-22T04:56:36.464Z,5.63
2022-10-22T04:59:05.721Z,6.45
2022-10-22T05:01:36.970Z,5.72
2022-10-22T05:04:08.749Z,7.30
2022-10-22T05:06:37.022Z,5.30
2022-10-22T05:09:07.141Z,5.82
2022-10-22T05:11:35.924Z,5.10
2022-10-22T05:14:05.610Z,6.22
2022-10-22T05:16:33.813Z,5.85
2022-10-22T05:19:02.389Z,5.97
2022-10-22T05:21:29.246Z,5.45
2022-10-22T05:23:57.205Z,6.38
2022-10-22T05:26:26.570Z,5.65
2022-10-22T05:28:53.640Z,5.75
2022-10-22T05:31:20.902Z,5.80
2022-10-22T05:33:48.398Z,5.50
2022-10-22T05:36:17.069Z,5.63
2022-10-22T05:38:44.008Z,5.75
2022-10-22T05:41:12.810Z,4.70
2022-10-22T05:43:41.024Z,4.72
2022-10-22T05:46:10.816Z,6.68
2022-10-22T05:48:38.695Z,6.63
2022-10-22T05:51:07.369Z,6.65
2022-10-22T05:53:35.558Z,6.05
2022-10-22T05:56:04.319Z,6.15
2022-10-22T05:58:31.528Z,6.28
2022-10-22T06:01:03.946Z,5.78
2022-10-22T06:03:31.273Z,5.55
2022-10-22T06:06:00.436Z,6.65
2022-10-22T06:08:27.747Z,6.07
2022-10-22T06:10:55.158Z,6.65
2022-10-22T06:13:21.855Z,5.75
2022-10-22T06:15:48.641Z,6.60
2022-10-22T06:18:17.302Z,6.07
2022-10-22T06:20:44.014Z,6.03
2022-10-22T06:23:10.737Z,7.28
2022-10-22T06:25:38.062Z,5.90
2022-10-22T06:28:04.980Z,7.70
2022-10-22T06:30:31.706Z,7.38
2022-10-22T06:32:59.135Z,6.07
2022-10-22T06:35:27.189Z,5.95
2022-10-22T06:37:53.894Z,5.93
2022-10-22T06:40:21.223Z,5.88
2022-10-22T06:42:47.927Z,6.05
2022-10-22T06:45:14.933Z,6.10
2022-10-22T06:47:42.629Z,6.55
2022-10-22T06:50:10.039Z,6.13
2022-10-22T06:52:38.106Z,6.05
2022-10-22T06:55:06.049Z,6.50
2022-10-22T06:57:32.936Z,6.35
2022-10-22T06:59:59.651Z,6.80
2022-10-22T07:02:26.969Z,7.55
2022-10-22T07:04:53.726Z,5.65
2022-10-22T07:07:20.473Z,6.93
2022-10-22T07:09:49.492Z,6.20
2022-10-22T07:12:17.386Z,6.20
2022-10-22T07:14:44.107Z,5.68
2022-10-22T07:17:11.416Z,7.93
2022-10-22T07:19:38.146Z,7.53
2022-10-22T07:22:04.879Z,5.78
2022-10-22T07:24:32.213Z,6.43
2022-10-22T07:27:00.284Z,5.10
2022-10-22T07:29:27.026Z,5.60
2022-10-22T07:31:54.477Z,6.10
2022-10-22T07:34:21.263Z,5.22
2022-10-22T07:36:48.002Z,5.30
2022-10-22T07:39:15.399Z,5.35
2022-10-22T07:41:42.147Z,5.30
2022-10-22T07:44:10.232Z,5.32
2022-10-22T07:46:37.735Z,6.03
2022-10-22T07:49:04.613Z,5.53
2022-10-22T07:51:31.386Z,4.60
2022-10-22T07:53:58.690Z,4.88
2022-10-22T07:56:25.554Z,4.30
2022-10-22T07:58:52.290Z,4.78
2022-10-22T08:01:21.043Z,3.25
2022-10-22T08:03:47.820Z,3.40
2022-10-22T08:06:15.063Z,4.10
2022-10-22T08:08:42.496Z,2.88
2022-10-22T08:11:10.462Z,3.50
2022-10-22T08:13:40.435Z,3.37
2022-10-22T08:16:10.188Z,3.75
2022-10-22T08:18:38.262Z,4.03
2022-10-22T08:21:05.313Z,3.80
2022-10-22T08:23:32.651Z,2.75
2022-10-22T08:25:59.376Z,2.67
2022-10-22T08:28:26.531Z,3.08
2022-10-22T08:30:53.829Z,2.70
2022-10-22T08:33:20.610Z,2.60
2022-10-22T08:35:52.243Z,2.58
2022-10-22T08:38:19.838Z,2.45
2022-10-22T08:43:47.185Z,1.80
2022-10-22T08:46:27.175Z,1.90
2022-10-22T08:48:57.333Z,1.90
2022-10-22T08:51:28.377Z,2.33
2022-10-22T08:54:12.961Z,2.47
2022-10-22T08:56:43.967Z,2.30
2022-10-22T08:59:16.478Z,1.60
2022-10-22T09:01:46.582Z,1.90
2022-10-22T09:04:19.183Z,2.42
2022-10-22T09:06:49.555Z,2.10
2022-10-22T09:09:20.671Z,1.88
2022-10-22T09:11:49.697Z,2.20
2022-10-22T09:14:18.872Z,1.98
2022-10-22T09:17:10.391Z,1.75
2022-10-22T09:19:45.050Z,2.28
2022-10-22T09:22:22.818Z,2.00
2022-10-22T09:24:54.863Z,2.00
2022-10-22T09:27:26.905Z,1.73
2022-10-22T09:29:53.779Z,2.22
2022-10-22T09:32:20.553Z,1.80
2022-10-22T09:34:49.891Z,2.47
2022-10-22T09:37:19.553Z,2.20
2022-10-22T09:39:50.773Z,2.00
2022-10-22T09:42:20.226Z,2.20
2022-10-22T09:47:42.503Z,2.00
2022-10-22T09:50:20.710Z,1.42
2022-10-22T09:53:00.233Z,2.10
2022-10-22T09:55:27.843Z,2.10
2022-10-22T09:57:56.655Z,2.10
2022-10-22T10:00:23.833Z,1.80
2022-10-22T10:02:54.998Z,2.30
2022-10-22T10:05:26.630Z,2.15
2022-10-22T10:07:54.695Z,2.90
2022-10-22T10:10:33.629Z,2.05
2022-10-22T10:13:12.692Z,1.92
2022-10-22T10:15:45.463Z,2.45
2022-10-22T10:18:24.604Z,2.35
2022-10-22T10:21:00.591Z,2.35
2022-10-22T10:23:35.888Z,2.38
2022-10-22T10:26:08.274Z,2.20
2022-10-22T10:28:49.668Z,2.30
2022-10-22T10:31:25.216Z,2.30
2022-10-22T10:34:02.864Z,2.58
2022-10-22T10:36:39.681Z,2.58
2022-10-22T10:39:12.600Z,2.50
2022-10-22T10:41:52.195Z,2.25
2022-10-22T10:44:45.850Z,2.42
2022-10-22T10:47:32.216Z,2.67
2022-10-22T10:50:13.933Z,1.90
2022-10-22T10:52:48.482Z,2.60
2022-10-22T10:55:25.354Z,2.10
2022-10-22T10:58:03.988Z,1.80
2022-10-22T11:00:36.068Z,2.17
2022-10-22T11:03:40.366Z,1.95
2022-10-22T11:06:10.017Z,2.30
2022-10-22T11:08:40.354Z,2.88
2022-10-22T11:11:14.859Z,2.00
2022-10-22T11:13:46.391Z,1.77
2022-10-22T11:16:20.650Z,2.25
2022-10-22T11:18:52.512Z,1.58
2022-10-22T11:21:26.962Z,2.13
2022-10-22T11:24:01.754Z,2.03
2022-10-22T11:26:37.712Z,1.52
2022-10-22T11:29:09.680Z,1.70
2022-10-22T11:31:37.528Z,1.40
2022-10-22T11:34:32.783Z,2.40
2022-10-22T11:37:00.775Z,1.80
2022-10-22T11:39:34.740Z,1.90
2022-10-22T11:42:05.039Z,1.67
2022-10-22T11:44:45.186Z,1.83
2022-10-22T11:47:19.235Z,2.00
2022-10-22T11:49:56.292Z,2.00
2022-10-22T11:52:26.765Z,2.33
2022-10-22T11:54:57.966Z,1.83
2022-10-22T11:57:35.350Z,1.90
2022-10-22T12:00:09.519Z,2.30
2022-10-22T12:02:45.855Z,1.80
2022-10-22T12:05:34.797Z,1.58
2022-10-22T12:08:22.680Z,1.85
2022-10-22T12:11:12.941Z,1.58
2022-10-22T12:14:12.658Z,1.85
2022-10-22T12:16:55.687Z,1.63
2022-10-22T12:19:30.078Z,2.70
2022-10-22T12:21:59.593Z,2.28
2022-10-22T12:24:34.049Z,2.00
2022-10-22T12:27:00.763Z,2.08
2022-10-22T12:29:32.733Z,1.90
2022-10-22T12:32:03.398Z,2.22
2022-10-22T12:34:30.712Z,2.60
2022-10-22T12:36:57.430Z,2.38
2022-10-22T12:39:26.813Z,2.40
2022-10-22T12:41:54.707Z,2.20
2022-10-22T12:44:21.554Z,1.88
2022-10-22T12:46:53.139Z,2.40
2022-10-22T12:49:31.760Z,2.10
2022-10-22T12:52:02.925Z,2.20
2022-10-22T12:54:31.874Z,1.85
2022-10-22T12:56:59.034Z,2.20
2022-10-22T12:59:28.215Z,2.40
2022-10-22T13:01:57.437Z,2.03
2022-10-22T13:04:35.378Z,1.75
2022-10-22T13:07:21.121Z,2.42
2022-10-22T13:09:58.197Z,1.95
2022-10-22T13:12:26.555Z,2.15
2022-10-22T13:14:53.510Z,3.05
2022-10-22T13:17:38.549Z,2.13
2022-10-22T13:20:20.884Z,2.22
2022-10-22T13:22:58.013Z,2.38
2022-10-22T13:25:29.354Z,2.10
2022-10-22T13:27:57.490Z,2.00
2022-10-22T13:30:26.013Z,1.67
2022-10-22T13:32:57.027Z,2.30
2022-10-22T13:35:27.253Z,2.28
2022-10-22T13:37:54.806Z,1.90
2022-10-22T13:40:21.913Z,2.08
2022-10-22T13:42:48.724Z,2.15
2022-10-22T13:45:16.960Z,2.20
2022-10-22T13:47:47.974Z,2.28
2022-10-22T13:50:18.978Z,2.55
2022-10-22T13:52:49.556Z,1.80
2022-10-22T13:55:19.892Z,2.40
2022-10-22T13:57:47.452Z,2.10
2022-10-22T14:00:17.203Z,2.08
2022-10-22T14:02:46.332Z,2.15
2022-10-22T14:05:13.596Z,1.75
2022-10-22T14:07:42.087Z,2.20
2022-10-22T14:10:18.243Z,1.92
2022-10-22T14:12:47.336Z,2.20
2022-10-22T14:15:18.710Z,2.45
2022-10-22T14:17:48.280Z,2.10
2022-10-22T14:20:18.054Z,1.80
2022-10-22T14:22:48.178Z,2.20
2022-10-22T14:25:16.406Z,1.95
2022-10-22T14:27:43.719Z,2.30
2022-10-22T14:30:15.211Z,1.67
2022-10-22T14:32:42.338Z,1.95
2022-10-22T14:35:12.495Z,2.05
2022-10-22T14:37:39.922Z,2.35
2022-10-22T14:40:11.047Z,1.95
2022-10-22T14:42:40.998Z,2.40
2022-10-22T14:45:15.532Z,2.20
2022-10-22T14:47:42.289Z,2.15
2022-10-22T14:50:09.914Z,2.17
2022-10-22T14:52:36.666Z,2.20
2022-10-22T14:55:04.051Z,2.20
2022-10-22T14:57:32.726Z,2.50
2022-10-22T14:59:59.483Z,1.88
2022-10-22T15:02:26.331Z,2.05
2022-10-22T15:04:53.716Z,2.50
2022-10-22T15:07:20.516Z,1.60
2022-10-22T15:09:47.244Z,2.28
2022-10-22T15:12:14.589Z,2.20
2022-10-22T15:14:42.740Z,2.40
2022-10-22T15:17:09.481Z,2.45
2022-10-22T15:19:36.834Z,2.25
2022-10-22T15:22:03.621Z,2.45
2022-10-22T15:24:30.339Z,2.50
2022-10-22T15:26:57.702Z,2.10
2022-10-22T15:29:24.458Z,2.63
2022-10-22T15:31:55.528Z,2.80
2022-10-22T15:34:25.145Z,3.63
2022-10-22T15:36:54.051Z,2.50
2022-10-22T15:39:20.870Z,3.28
2022-10-22T15:41:48.448Z,2.92
2022-10-22T15:44:16.953Z,2.90
2022-10-22T15:46:43.840Z,2.63
2022-10-22T15:49:13.334Z,2.88
2022-10-22T15:51:40.502Z,3.50
2022-10-22T15:54:10.149Z,3.67
2022-10-22T15:56:37.704Z,3.40
2022-10-22T15:59:04.472Z,3.63
2022-10-22T16:01:32.962Z,3.53
2022-10-22T16:04:00.637Z,3.42
2022-10-22T16:06:30.139Z,3.15
2022-10-22T16:08:58.685Z,3.20
2022-10-22T16:11:27.207Z,3.28
2022-10-22T16:13:54.091Z,3.50
2022-10-22T16:16:21.798Z,3.30
2022-10-22T16:18:49.191Z,4.30
2022-10-22T16:21:16.026Z,4.93
2022-10-22T16:23:44.322Z,4.75
2022-10-22T16:28:38.467Z,4.75
2022-10-22T16:31:06.991Z,6.07
2022-10-22T16:33:41.368Z,6.05
2022-10-22T16:36:11.983Z,7.57
2022-10-22T16:38:39.411Z,9.75
2022-10-22T16:41:12.131Z,9.10
2022-10-22T16:43:39.771Z,7.53
2022-10-22T16:46:07.254Z,8.20
2022-10-22T16:48:34.063Z,7.85
2022-10-22T16:51:06.633Z,9.43
2022-10-22T16:56:01.822Z,8.32
2022-10-22T16:58:30.122Z,8.55
2022-10-22T17:00:56.899Z,7.15
2022-10-22T17:03:27.443Z,7.93
2022-10-22T17:05:58.188Z,9.05
2022-10-22T17:08:25.532Z,9.48
2022-10-22T17:10:52.290Z,10.25
2022-10-22T17:13:19.038Z,9.95
2022-10-22T17:15:47.738Z,8.70
2022-10-22T17:18:15.098Z,8.83
2022-10-22T17:20:42.114Z,9.75
2022-10-22T17:23:10.005Z,11.57
2022-10-22T17:25:41.900Z,13.30
2022-10-22T17:28:08.757Z,11.35
2022-10-22T17:30:36.111Z,10.98
2022-10-22T17:33:04.498Z,10.57
2022-10-22T17:35:31.312Z,10.23
2022-10-22T17:37:58.668Z,10.85
2022-10-22T17:40:25.437Z,9.95
2022-10-22T17:42:53.674Z,9.10
2022-10-22T17:45:21.001Z,8.85
2022-10-22T17:47:47.742Z,28.63
2022-10-22T17:50:15.950Z,12.45
2022-10-22T17:52:43.670Z,12.80
2022-10-22T17:55:12.374Z,13.90
2022-10-22T17:57:39.207Z,10.30
2022-10-22T18:00:07.743Z,10.38
2022-10-22T18:02:34.640Z,9.68
2022-10-22T18:05:01.424Z,9.73
2022-10-22T18:07:30.098Z,9.07
2022-10-22T18:09:59.703Z,10.33
2022-10-22T18:12:26.537Z,11.20
2022-10-22T18:14:54.011Z,12.52
2022-10-22T18:17:20.697Z,13.15
2022-10-22T18:19:48.472Z,9.68
2022-10-22T18:22:15.788Z,9.23
2022-10-22T18:24:43.835Z,9.43
2022-10-22T18:27:10.555Z,8.53
2022-10-22T18:29:37.883Z,8.32
2022-10-22T18:32:05.312Z,10.35
2022-10-22T18:34:34.202Z,10.38
2022-10-22T18:37:01.548Z,8.50
2022-10-22T18:39:28.281Z,9.57
2022-10-22T18:41:56.323Z,9.30
2022-10-22T18:44:23.668Z,10.23
2022-10-22T18:46:50.774Z,9.50
2022-10-22T18:49:18.913Z,9.73
2022-10-22T18:51:46.844Z,11.30
2022-10-22T18:54:25.563Z,10.70
2022-10-22T18:56:53.486Z,11.25
2022-10-22T18:59:23.340Z,13.05
2022-10-22T19:01:51.374Z,11.98
2022-10-22T19:04:18.843Z,12.20
2022-10-22T19:06:46.155Z,11.18
2022-10-22T19:09:13.424Z,10.93
2022-10-22T19:11:40.942Z,10.15
2022-10-22T19:14:07.673Z,10.45
2022-10-22T19:16:35.787Z,9.65
2022-10-22T19:19:05.219Z,9.15
2022-10-22T19:21:32.816Z,8.98
2022-10-22T19:24:00.546Z,9.02
2022-10-22T19:26:29.553Z,10.23
2022-10-22T19:28:58.167Z,13.10
2022-10-22T19:31:26.529Z,16.20
2022-10-22T19:36:23.793Z,14.35
2022-10-22T19:38:50.571Z,11.75
2022-10-22T19:41:19.654Z,11.65
2022-10-22T19:43:49.346Z,11.05
2022-10-22T19:46:16.739Z,10.98
2022-10-22T19:51:19.482Z,10.95
2022-10-22T19:53:48.059Z,9.70
2022-10-22T19:56:17.790Z,9.80
2022-10-22T19:58:44.866Z,9.63
2022-10-22T20:01:14.078Z,10.05
2022-10-22T20:03:41.446Z,9.73
2022-10-22T20:06:09.922Z,9.07
2022-10-22T20:11:07.697Z,8.52
2022-10-22T20:13:34.493Z,9.07
2022-10-22T20:16:02.151Z,9.43
2022-10-22T20:18:28.886Z,9.93
2022-10-22T20:20:55.610Z,10.00
2022-10-22T20:23:22.989Z,10.40
2022-10-22T20:25:51.093Z,9.98
2022-10-22T20:28:18.737Z,10.23
2022-10-22T20:30:46.535Z,10.23
2022-10-22T20:33:13.847Z,10.30
2022-10-22T20:35:40.556Z,9.57
2022-10-22T20:38:12.465Z,10.13
2022-10-22T20:40:39.251Z,10.98
2022-10-22T20:43:10.518Z,9.93
2022-10-22T20:45:39.669Z,11.20
2022-10-22T20:48:06.774Z,11.38
2022-10-22T20:50:33.671Z,11.38
2022-10-22T20:53:00.974Z,10.68
2022-10-22T20:55:27.856Z,11.05
2022-10-22T20:57:54.934Z,10.88
2022-10-22T21:00:23.669Z,11.15
2022-10-22T21:02:50.408Z,11.40
2022-10-22T21:05:17.311Z,10.75
2022-10-22T21:07:45.127Z,11.25
2022-10-22T21:10:11.861Z,11.20
2022-10-22T21:12:38.566Z,11.07
2022-10-22T21:15:10.256Z,11.25
2022-10-22T21:17:40.630Z,10.43
2022-10-22T21:20:08.608Z,10.90
2022-10-22T21:22:35.322Z,11.32
2022-10-22T21:25:02.118Z,12.00
2022-10-22T21:27:29.502Z,11.43
2022-10-22T21:29:56.220Z,11.80
2022-10-22T21:32:22.928Z,11.60
2022-10-22T21:34:51.723Z,12.27
2022-10-22T21:37:18.473Z,12.50
2022-10-22T21:39:45.204Z,11.73
2022-10-22T21:42:14.948Z,12.00
2022-10-22T21:44:41.657Z,11.43
2022-10-22T21:47:08.378Z,11.25
2022-10-22T21:49:35.675Z,10.38
2022-10-22T21:52:03.752Z,11.57
2022-10-22T21:54:30.491Z,10.73
2022-10-22T21:56:57.806Z,11.27
2022-10-22T21:59:24.567Z,11.73
2022-10-22T22:01:51.283Z,11.45
2022-10-22T22:04:18.613Z,11.60
2022-10-22T22:06:45.322Z,11.52
2022-10-22T22:09:13.480Z,11.35
2022-10-22T22:11:40.944Z,12.07
2022-10-22T22:14:07.729Z,11.70
2022-10-22T22:16:35.139Z,11.88
2022-10-22T22:19:05.392Z,12.17
2022-10-22T22:21:32.429Z,11.32
2022-10-22T22:23:59.258Z,11.68
2022-10-22T22:26:30.193Z,11.73
2022-10-22T22:28:58.054Z,12.05
2022-10-22T22:31:27.319Z,11.65
2022-10-22T22:33:58.575Z,12.02
2022-10-22T22:36:25.363Z,11.30
2022-10-22T22:38:54.514Z,12.68
2022-10-22T22:41:21.936Z,11.02
2022-10-22T22:43:50.277Z,12.20
2022-10-22T22:46:17.015Z,11.82
2022-10-22T22:48:44.711Z,12.48
2022-10-22T22:51:11.486Z,12.30
2022-10-22T22:53:38.222Z,11.77
2022-10-22T22:56:08.275Z,12.00
2022-10-22T22:58:35.702Z,12.63
2022-10-22T23:01:12.317Z,12.40
2022-10-22T23:03:39.844Z,11.57
2022-10-22T23:06:07.227Z,11.90
2022-10-22T23:08:34.399Z,12.25
2022-10-22T23:11:03.274Z,11.90
2022-10-22T23:13:29.977Z,11.52
2022-10-22T23:15:56.823Z,11.30
2022-10-22T23:18:25.681Z,12.52
2022-10-22T23:20:52.804Z,11.18
2022-10-22T23:23:19.514Z,11.52
2022-10-22T23:25:46.887Z,11.38
2022-10-22T23:28:13.650Z,10.73
2022-10-22T23:30:43.983Z,12.27
2022-10-22T23:33:11.790Z,12.07
2022-10-22T23:35:42.962Z,12.40
2022-10-22T23:38:09.697Z,11.27
2022-10-22T23:40:37.414Z,11.77
2022-10-22T23:43:04.685Z,12.10
2022-10-22T23:45:34.247Z,11.93
2022-10-22T23:48:01.642Z,10.57
2022-10-22T23:50:28.390Z,10.30
2022-10-22T23:52:56.494Z,11.30
2022-10-22T23:55:23.919Z,10.20
2022-10-22T23:57:50.643Z,10.68
